APG216 RPVE-RPLL
Flight info
| Callsign | APG216 |
|---|---|
| Flight time | 0h 36m |
| Altitude | 24000 |
| Route | MINOR8A MINOR B473 LAIYA LAIYA3R |
| Aircraft | A320/M-SDE3FGHIRWY/LB1 |
Departure
| Time | 2026-05-05 08:14 |
|---|---|
| Airport | Godofredo P. Ramos Airport (RPVE) |
Arrival
| Time | 2026-05-05 08:50 |
|---|---|
| Airport | Ninoy Aquino International Airport (RPLL) |
| Time | Latitude | Longitude | Altitude | Speed | Heading |
|---|---|---|---|---|---|
| 2026-05-05 08:00 | 11.92631 | 121.96332 | 58 ft | 0 kts | 151° |
| 2026-05-05 08:07 | 11.92634 | 121.96330 | 58 ft | 2 kts | 151° |
| 2026-05-05 08:07 | 11.92647 | 121.96323 | 58 ft | 2 kts | 152° |
| 2026-05-05 08:07 | 11.92661 | 121.96316 | 58 ft | 2 kts | 152° |
| 2026-05-05 08:07 | 11.92678 | 121.96312 | 58 ft | 2 kts | 199° |
| 2026-05-05 08:08 | 11.92691 | 121.96321 | 59 ft | 0 kts | 238° |
| 2026-05-05 08:08 | 11.92688 | 121.96317 | 59 ft | 4 kts | 239° |
| 2026-05-05 08:08 | 11.92682 | 121.96305 | 58 ft | 0 kts | 243° |
| 2026-05-05 08:10 | 11.92681 | 121.96303 | 58 ft | 1 kts | 243° |
| 2026-05-05 08:10 | 11.92669 | 121.96281 | 58 ft | 5 kts | 243° |
| 2026-05-05 08:10 | 11.92645 | 121.96233 | 56 ft | 9 kts | 243° |
| 2026-05-05 08:10 | 11.92665 | 121.96183 | 56 ft | 9 kts | 333° |
| 2026-05-05 08:11 | 11.92728 | 121.96150 | 56 ft | 10 kts | 333° |
| 2026-05-05 08:11 | 11.92796 | 121.96114 | 56 ft | 9 kts | 322° |
| 2026-05-05 08:11 | 11.92781 | 121.96047 | 54 ft | 12 kts | 244° |
| 2026-05-05 08:11 | 11.92736 | 121.95956 | 50 ft | 16 kts | 243° |
| 2026-05-05 08:12 | 11.92678 | 121.95840 | 45 ft | 20 kts | 243° |
| 2026-05-05 08:12 | 11.92604 | 121.95695 | 38 ft | 26 kts | 243° |
| 2026-05-05 08:12 | 11.92510 | 121.95506 | 28 ft | 32 kts | 242° |
| 2026-05-05 08:12 | 11.92398 | 121.95282 | 20 ft | 37 kts | 243° |
| 2026-05-05 08:13 | 11.92306 | 121.95097 | 19 ft | 15 kts | 241° |
| 2026-05-05 08:13 | 11.92250 | 121.95039 | 19 ft | 9 kts | 216° |
| 2026-05-05 08:13 | 11.92238 | 121.95003 | 19 ft | 3 kts | 313° |
| 2026-05-05 08:13 | 11.92255 | 121.95007 | 19 ft | 3 kts | 43° |
| 2026-05-05 08:14 | 11.92272 | 121.95035 | 19 ft | 10 kts | 61° |
| 2026-05-05 08:14 | 11.92446 | 121.95379 | 23 ft | 98 kts | 63° |
| 2026-05-05 08:14 | 11.92866 | 121.96214 | 182 ft | 155 kts | 65° |
| 2026-05-05 08:14 | 11.93343 | 121.97168 | 1063 ft | 153 kts | 65° |
| 2026-05-05 08:15 | 11.93807 | 121.98086 | 2047 ft | 142 kts | 64° |
| 2026-05-05 08:15 | 11.94255 | 121.98983 | 2499 ft | 151 kts | 65° |
| 2026-05-05 08:15 | 11.94758 | 122.00012 | 2861 ft | 169 kts | 64° |
| 2026-05-05 08:15 | 11.95314 | 122.01122 | 3258 ft | 185 kts | 64° |
| 2026-05-05 08:16 | 11.95945 | 122.02349 | 3701 ft | 201 kts | 63° |
| 2026-05-05 08:16 | 11.96789 | 122.03552 | 4064 ft | 225 kts | 39° |
| 2026-05-05 08:16 | 11.98276 | 122.04318 | 4519 ft | 246 kts | 25° |
| 2026-05-05 08:16 | 11.99934 | 122.04970 | 4979 ft | 264 kts | 25° |
| 2026-05-05 08:17 | 12.01641 | 122.05690 | 5624 ft | 271 kts | 27° |
| 2026-05-05 08:17 | 12.03363 | 122.06499 | 6403 ft | 273 kts | 28° |
| 2026-05-05 08:17 | 12.05089 | 122.07356 | 7178 ft | 276 kts | 29° |
| 2026-05-05 08:17 | 12.06804 | 122.08223 | 7884 ft | 280 kts | 29° |
| 2026-05-05 08:18 | 12.08559 | 122.09113 | 8573 ft | 284 kts | 29° |
| 2026-05-05 08:18 | 12.10359 | 122.10024 | 9263 ft | 288 kts | 28° |
| 2026-05-05 08:18 | 12.12266 | 122.10990 | 9976 ft | 291 kts | 28° |
| 2026-05-05 08:18 | 12.14119 | 122.11929 | 10540 ft | 299 kts | 28° |
| 2026-05-05 08:19 | 12.16005 | 122.12884 | 10931 ft | 311 kts | 28° |
| 2026-05-05 08:19 | 12.17969 | 122.13879 | 11517 ft | 316 kts | 28° |
| 2026-05-05 08:19 | 12.19964 | 122.14889 | 12143 ft | 318 kts | 28° |
| 2026-05-05 08:19 | 12.21965 | 122.15901 | 12737 ft | 321 kts | 28° |
| 2026-05-05 08:20 | 12.23967 | 122.16916 | 13305 ft | 324 kts | 28° |
| 2026-05-05 08:20 | 12.26024 | 122.17960 | 13866 ft | 327 kts | 28° |
| 2026-05-05 08:20 | 12.28064 | 122.18996 | 14389 ft | 330 kts | 28° |
| 2026-05-05 08:20 | 12.30147 | 122.20052 | 14920 ft | 333 kts | 28° |
| 2026-05-05 08:21 | 12.32251 | 122.21119 | 15431 ft | 336 kts | 28° |
| 2026-05-05 08:21 | 12.34411 | 122.22155 | 15925 ft | 340 kts | 20° |
| 2026-05-05 08:21 | 12.36816 | 122.22499 | 16391 ft | 346 kts | 357° |
| 2026-05-05 08:21 | 12.39183 | 122.21862 | 16901 ft | 351 kts | 334° |
| 2026-05-05 08:22 | 12.41250 | 122.20538 | 17413 ft | 353 kts | 327° |
| 2026-05-05 08:22 | 12.43279 | 122.19099 | 17876 ft | 355 kts | 326° |
| 2026-05-05 08:22 | 12.45322 | 122.17647 | 18329 ft | 358 kts | 326° |
| 2026-05-05 08:22 | 12.47360 | 122.16206 | 18772 ft | 360 kts | 327° |
| 2026-05-05 08:23 | 12.49449 | 122.14739 | 19206 ft | 363 kts | 327° |
| 2026-05-05 08:23 | 12.51561 | 122.13264 | 19635 ft | 365 kts | 327° |
| 2026-05-05 08:23 | 12.53653 | 122.11806 | 20047 ft | 368 kts | 327° |
| 2026-05-05 08:23 | 12.55809 | 122.10305 | 20463 ft | 371 kts | 326° |
| 2026-05-05 08:24 | 12.57983 | 122.08793 | 20881 ft | 373 kts | 326° |
| 2026-05-05 08:24 | 12.60168 | 122.07272 | 21290 ft | 376 kts | 326° |
| 2026-05-05 08:24 | 12.62353 | 122.05752 | 21705 ft | 378 kts | 326° |
| 2026-05-05 08:24 | 12.64571 | 122.04208 | 22114 ft | 380 kts | 326° |
| 2026-05-05 08:25 | 12.66797 | 122.02659 | 22515 ft | 382 kts | 326° |
| 2026-05-05 08:25 | 12.69031 | 122.01105 | 22910 ft | 384 kts | 326° |
| 2026-05-05 08:25 | 12.71249 | 121.99560 | 23293 ft | 386 kts | 326° |
| 2026-05-05 08:25 | 12.73513 | 121.97984 | 23681 ft | 389 kts | 326° |
| 2026-05-05 08:26 | 12.75774 | 121.96410 | 23828 ft | 397 kts | 326° |
| 2026-05-05 08:26 | 12.78187 | 121.94730 | 23830 ft | 410 kts | 326° |
| 2026-05-05 08:26 | 12.80664 | 121.93005 | 23830 ft | 423 kts | 326° |
| 2026-05-05 08:26 | 12.83165 | 121.91262 | 23830 ft | 434 kts | 326° |
| 2026-05-05 08:27 | 12.85708 | 121.89488 | 23830 ft | 443 kts | 326° |
| 2026-05-05 08:27 | 12.88344 | 121.87650 | 23830 ft | 453 kts | 326° |
| 2026-05-05 08:27 | 12.91011 | 121.85790 | 23829 ft | 461 kts | 326° |
| 2026-05-05 08:27 | 12.93740 | 121.83886 | 23827 ft | 469 kts | 326° |
| 2026-05-05 08:28 | 12.96470 | 121.81981 | 23826 ft | 474 kts | 326° |
| 2026-05-05 08:28 | 12.99256 | 121.80037 | 23828 ft | 475 kts | 326° |
| 2026-05-05 08:28 | 13.02021 | 121.78107 | 23830 ft | 475 kts | 326° |
| 2026-05-05 08:28 | 13.04824 | 121.76150 | 23829 ft | 474 kts | 326° |
| 2026-05-05 08:29 | 13.07572 | 121.74230 | 23831 ft | 474 kts | 326° |
| 2026-05-05 08:29 | 13.10348 | 121.72291 | 23832 ft | 474 kts | 326° |
| 2026-05-05 08:29 | 13.13128 | 121.70348 | 23833 ft | 474 kts | 326° |
| 2026-05-05 08:30 | 13.18642 | 121.66492 | 23837 ft | 474 kts | 326° |
| 2026-05-05 08:30 | 13.21432 | 121.64540 | 23841 ft | 474 kts | 326° |
| 2026-05-05 08:30 | 13.24222 | 121.62588 | 23844 ft | 474 kts | 326° |
| 2026-05-05 08:30 | 13.26993 | 121.60649 | 23846 ft | 475 kts | 326° |
| 2026-05-05 08:31 | 13.29761 | 121.58711 | 23847 ft | 475 kts | 326° |
| 2026-05-05 08:31 | 13.32529 | 121.56773 | 23847 ft | 474 kts | 326° |
| 2026-05-05 08:31 | 13.35299 | 121.54832 | 23638 ft | 467 kts | 326° |
| 2026-05-05 08:31 | 13.37944 | 121.52978 | 23169 ft | 456 kts | 326° |
| 2026-05-05 08:32 | 13.40567 | 121.51138 | 22624 ft | 448 kts | 326° |
| 2026-05-05 08:32 | 13.43170 | 121.49312 | 22064 ft | 440 kts | 326° |
| 2026-05-05 08:32 | 13.45664 | 121.47562 | 21554 ft | 419 kts | 326° |
| 2026-05-05 08:32 | 13.48022 | 121.45908 | 21046 ft | 398 kts | 326° |
| 2026-05-05 08:33 | 13.50246 | 121.44347 | 20573 ft | 378 kts | 326° |
| 2026-05-05 08:33 | 13.52383 | 121.42847 | 20003 ft | 367 kts | 326° |
| 2026-05-05 08:33 | 13.54490 | 121.41368 | 19501 ft | 363 kts | 326° |
| 2026-05-05 08:33 | 13.56570 | 121.39908 | 19190 ft | 355 kts | 326° |
| 2026-05-05 08:34 | 13.58570 | 121.38477 | 18892 ft | 349 kts | 325° |
| 2026-05-05 08:34 | 13.60530 | 121.37021 | 18487 ft | 346 kts | 324° |
| 2026-05-05 08:34 | 13.62497 | 121.35546 | 18062 ft | 344 kts | 325° |
| 2026-05-05 08:34 | 13.64458 | 121.34077 | 17640 ft | 342 kts | 324° |
| 2026-05-05 08:35 | 13.66385 | 121.32635 | 17247 ft | 340 kts | 325° |
| 2026-05-05 08:35 | 13.68319 | 121.31192 | 16853 ft | 338 kts | 325° |
| 2026-05-05 08:35 | 13.70234 | 121.29764 | 16474 ft | 336 kts | 325° |
| 2026-05-05 08:35 | 13.72133 | 121.28347 | 16086 ft | 334 kts | 325° |
| 2026-05-05 08:36 | 13.74027 | 121.26934 | 15693 ft | 332 kts | 325° |
| 2026-05-05 08:36 | 13.75923 | 121.25520 | 15314 ft | 331 kts | 325° |
| 2026-05-05 08:36 | 13.77814 | 121.24110 | 14926 ft | 329 kts | 325° |
| 2026-05-05 08:36 | 13.79697 | 121.22706 | 14540 ft | 327 kts | 325° |
| 2026-05-05 08:37 | 13.81543 | 121.21326 | 14154 ft | 326 kts | 325° |
| 2026-05-05 08:37 | 13.83357 | 121.19972 | 13776 ft | 324 kts | 325° |
| 2026-05-05 08:37 | 13.85203 | 121.18594 | 13384 ft | 322 kts | 325° |
| 2026-05-05 08:37 | 13.87052 | 121.17212 | 12993 ft | 320 kts | 326° |
| 2026-05-05 08:38 | 13.88906 | 121.15829 | 12597 ft | 319 kts | 325° |
| 2026-05-05 08:38 | 13.90687 | 121.14499 | 12200 ft | 318 kts | 325° |
| 2026-05-05 08:38 | 13.92492 | 121.13151 | 11792 ft | 316 kts | 325° |
| 2026-05-05 08:38 | 13.94282 | 121.11813 | 11392 ft | 315 kts | 325° |
| 2026-05-05 08:39 | 13.96058 | 121.10485 | 11003 ft | 314 kts | 325° |
| 2026-05-05 08:39 | 13.97831 | 121.09160 | 10603 ft | 312 kts | 325° |
| 2026-05-05 08:39 | 13.99578 | 121.07854 | 10230 ft | 309 kts | 325° |
| 2026-05-05 08:39 | 14.01354 | 121.06525 | 9847 ft | 307 kts | 325° |
| 2026-05-05 08:40 | 14.03081 | 121.05228 | 9491 ft | 304 kts | 324° |
| 2026-05-05 08:40 | 14.04797 | 121.03944 | 9104 ft | 303 kts | 325° |
| 2026-05-05 08:40 | 14.06522 | 121.02657 | 8728 ft | 301 kts | 325° |
| 2026-05-05 08:40 | 14.08248 | 121.01369 | 8366 ft | 299 kts | 325° |
| 2026-05-05 08:41 | 14.09937 | 121.00104 | 8015 ft | 296 kts | 325° |
| 2026-05-05 08:41 | 14.11624 | 120.98841 | 7657 ft | 294 kts | 325° |
| 2026-05-05 08:41 | 14.13277 | 120.97602 | 7310 ft | 292 kts | 325° |
| 2026-05-05 08:41 | 14.14950 | 120.96350 | 7042 ft | 286 kts | 325° |
| 2026-05-05 08:42 | 14.16608 | 120.95108 | 6943 ft | 275 kts | 326° |
| 2026-05-05 08:42 | 14.18249 | 120.94024 | 6744 ft | 267 kts | 331° |
| 2026-05-05 08:42 | 14.19902 | 120.93038 | 6415 ft | 266 kts | 332° |
| 2026-05-05 08:42 | 14.21522 | 120.92090 | 6093 ft | 264 kts | 332° |
| 2026-05-05 08:43 | 14.23140 | 120.91138 | 5783 ft | 262 kts | 332° |
| 2026-05-05 08:43 | 14.24756 | 120.90187 | 5537 ft | 257 kts | 332° |
| 2026-05-05 08:43 | 14.26373 | 120.89233 | 5386 ft | 247 kts | 332° |
| 2026-05-05 08:43 | 14.27870 | 120.88347 | 5235 ft | 239 kts | 332° |
| 2026-05-05 08:44 | 14.29397 | 120.87458 | 5027 ft | 233 kts | 333° |
| 2026-05-05 08:44 | 14.30858 | 120.86614 | 4734 ft | 233 kts | 333° |
| 2026-05-05 08:44 | 14.32336 | 120.85761 | 4430 ft | 233 kts | 333° |
| 2026-05-05 08:44 | 14.33855 | 120.84884 | 4128 ft | 233 kts | 333° |
| 2026-05-05 08:45 | 14.35299 | 120.84048 | 3851 ft | 232 kts | 333° |
| 2026-05-05 08:45 | 14.36720 | 120.83225 | 3574 ft | 231 kts | 334° |
| 2026-05-05 08:45 | 14.38187 | 120.82562 | 3262 ft | 227 kts | 356° |
| 2026-05-05 08:45 | 14.39726 | 120.82758 | 2954 ft | 217 kts | 31° |
| 2026-05-05 08:46 | 14.40822 | 120.83773 | 2924 ft | 196 kts | 58° |
| 2026-05-05 08:46 | 14.41601 | 120.85117 | 2937 ft | 191 kts | 64° |
| 2026-05-05 08:46 | 14.42290 | 120.86448 | 2860 ft | 192 kts | 63° |
| 2026-05-05 08:46 | 14.42995 | 120.87776 | 2672 ft | 183 kts | 63° |
| 2026-05-05 08:47 | 14.43660 | 120.88992 | 2399 ft | 178 kts | 63° |
| 2026-05-05 08:47 | 14.44286 | 120.90119 | 2137 ft | 168 kts | 63° |
| 2026-05-05 08:47 | 14.44878 | 120.91180 | 1918 ft | 152 kts | 63° |
| 2026-05-05 08:47 | 14.45404 | 120.92120 | 1693 ft | 137 kts | 64° |
| 2026-05-05 08:48 | 14.45877 | 120.92971 | 1519 ft | 133 kts | 65° |
| 2026-05-05 08:48 | 14.46349 | 120.93824 | 1363 ft | 132 kts | 64° |
| 2026-05-05 08:48 | 14.46811 | 120.94656 | 1204 ft | 132 kts | 65° |
| 2026-05-05 08:48 | 14.47282 | 120.95508 | 1049 ft | 132 kts | 62° |
| 2026-05-05 08:49 | 14.47747 | 120.96343 | 878 ft | 132 kts | 63° |
| 2026-05-05 08:49 | 14.48231 | 120.97213 | 694 ft | 131 kts | 64° |
| 2026-05-05 08:49 | 14.48742 | 120.98129 | 515 ft | 131 kts | 65° |
| 2026-05-05 08:49 | 14.49248 | 120.99044 | 341 ft | 132 kts | 65° |
| 2026-05-05 08:50 | 14.49754 | 120.99957 | 149 ft | 131 kts | 63° |
| 2026-05-05 08:50 | 14.50235 | 121.00826 | 82 ft | 114 kts | 58° |
| 2026-05-05 08:50 | 14.50559 | 121.01411 | 82 ft | 55 kts | 60° |
| 2026-05-05 08:50 | 14.50790 | 121.01740 | 82 ft | 33 kts | 41° |
| 2026-05-05 08:51 | 14.50868 | 121.01789 | 82 ft | 6 kts | 7° |
| 2026-05-05 08:51 | 14.50909 | 121.01760 | 82 ft | 7 kts | 276° |
| 2026-05-05 08:51 | 14.50881 | 121.01698 | 82 ft | 9 kts | 239° |
| 2026-05-05 08:51 | 14.50840 | 121.01627 | 82 ft | 10 kts | 239° |
| 2026-05-05 08:52 | 14.50797 | 121.01550 | 82 ft | 12 kts | 241° |
| 2026-05-05 08:52 | 14.50751 | 121.01466 | 82 ft | 13 kts | 240° |
| 2026-05-05 08:52 | 14.50704 | 121.01382 | 82 ft | 6 kts | 240° |
| 2026-05-05 08:52 | 14.50692 | 121.01336 | 82 ft | 6 kts | 294° |
| 2026-05-05 08:53 | 14.50739 | 121.01303 | 82 ft | 8 kts | 330° |
| 2026-05-05 08:53 | 14.50796 | 121.01269 | 82 ft | 9 kts | 330° |
| 2026-05-05 08:53 | 14.50829 | 121.01250 | 82 ft | 0 kts | 331° |